Paines Hollow, New York
Current Conditions -  °F | °C
As of 11:53 PM on Sunday 19 Oct 2014 (Local Time) from KRME Reporting Station
Overcast Overcast  
Wind Chill: 36°   Ceiling: 3700
Heat Index: 36°   Visibility: 10mi
Dew Point: 34°   Wind: 0mph
Humidity: 93%   Direction: NA
Pressure: 30.04"   Gusts: NA
Location:  42.9627°N, 74.9432°W
Report Text: KRME 200353Z AUTO 00000KT 10SM BKN037 OVC046 02/01 A3004 RMK AO2 SLP173 T00220011 TSNO
Loading
Personal Weather Stations






























Interactive Weather Map
Tropical Storm Tracking
New forecast layout! Learn more

10-Day Weather Forecast

Advertisements
Track Severe Weather on mobile